Airfield :
LOGIN :

Register | Disclaimer

   EN    FR    IT 

 










Legend :    VFR   Marginal VFR   IFR   Intensive IFR   Very Intensive IFR
Visi :
Ceiling :
>= 8 km
>= 3000ft
5 to 8 km
1000 to 3000 ft
1500m to 5 km
500 to 1000 ft
800 to 1500m
200 to 500 ft
< 800m
< 200 ft
Symbols :   Thunderstorms  Fog  Heavy snow  Heavy precipitations  Wind > 20 kt
SIGMETs :     Misc.  Thunderstorms  Icing  Turbulence  Mountain Waves  Volcanic Ashes






- Airport Elevation : 124 ft
- IATA code : NHT


EGWU - RAF Northolt

CURRENT METAR :
  • 270150Z AUTO 24004KT 9999 BKN090/// BKN150/// 18/15 Q1009

EXPIRED METARs :
  • 270050Z AUTO 23004KT 9999 FEW110/// OVC150/// 18/15 Q1009
  • 262350Z AUTO 26004KT 9999 FEW100/// BKN160/// 19/15 Q1009

TAF TAF EGWU
Valid from the 26 at 21:00 until the 27 at 15:00 UTC


261945Z 2621/2715 20007KT 9999 FEW045
PROB30
TEMPO 2704/2707 6000 SHRA
PROB30
TEMPO 2707/2710 6000 SHRA SCT018
PROB40
TEMPO 2710/2715 4000 SHRA BKN020CB
PROB30
TEMPO 2711/2715 3000 +TSGS BKN014CB



MET'MAP, your aeronautical weather chart ! - Copyright ORBIFLY December 2007 - Disclaimer

ORBIFLY MET'MAP TEAM :

Programming & Development : Alexandra Zaïnal
Concept & original design : Baudouin d'Aumeries
Assistance for programming : Marc-Olivier Méhu
Technical & hardware support : Manuel Goepfert

Contact : metmap@orbifly.com




SOURCES & CREDITS :

   NOAA